sensor_id;sensor_type;location;lat;lon;timestamp;P1;durP1;ratioP1;P2;durP2;ratioP2
20894;SDS011;10607;42.066;24.742;2022-12-10T00:01:45;93.53;;;36.17;;
20894;SDS011;10607;42.066;24.742;2022-12-10T00:04:10;83.77;;;34.30;;
20894;SDS011;10607;42.066;24.742;2022-12-10T00:06:36;91.73;;;33.30;;
20894;SDS011;10607;42.066;24.742;2022-12-10T00:09:03;85.60;;;33.97;;
20894;SDS011;10607;42.066;24.742;2022-12-10T00:11:28;93.47;;;37.00;;
20894;SDS011;10607;42.066;24.742;2022-12-10T00:13:54;92.93;;;37.83;;
20894;SDS011;10607;42.066;24.742;2022-12-10T00:16:21;96.03;;;37.10;;
20894;SDS011;10607;42.066;24.742;2022-12-10T00:18:47;86.23;;;35.03;;
20894;SDS011;10607;42.066;24.742;2022-12-10T00:21:13;103.13;;;37.17;;
20894;SDS011;10607;42.066;24.742;2022-12-10T00:23:39;89.13;;;35.47;;
20894;SDS011;10607;42.066;24.742;2022-12-10T00:26:05;92.80;;;35.60;;
20894;SDS011;10607;42.066;24.742;2022-12-10T00:28:31;80.03;;;33.60;;
20894;SDS011;10607;42.066;24.742;2022-12-10T00:31:01;94.33;;;36.80;;
20894;SDS011;10607;42.066;24.742;2022-12-10T00:33:26;90.33;;;36.17;;
20894;SDS011;10607;42.066;24.742;2022-12-10T00:35:52;106.20;;;36.70;;
20894;SDS011;10607;42.066;24.742;2022-12-10T00:38:17;99.07;;;36.37;;
20894;SDS011;10607;42.066;24.742;2022-12-10T00:40:42;109.37;;;40.13;;
20894;SDS011;10607;42.066;24.742;2022-12-10T00:43:07;112.33;;;38.10;;
20894;SDS011;10607;42.066;24.742;2022-12-10T00:45:32;125.23;;;37.30;;
20894;SDS011;10607;42.066;24.742;2022-12-10T00:47:58;109.80;;;38.23;;
20894;SDS011;10607;42.066;24.742;2022-12-10T00:50:23;125.43;;;40.30;;
20894;SDS011;10607;42.066;24.742;2022-12-10T00:52:48;108.10;;;38.10;;
20894;SDS011;10607;42.066;24.742;2022-12-10T00:55:14;117.27;;;37.90;;
20894;SDS011;10607;42.066;24.742;2022-12-10T00:57:39;117.30;;;38.80;;
20894;SDS011;10607;42.066;24.742;2022-12-10T01:00:04;121.53;;;40.17;;
20894;SDS011;10607;42.066;24.742;2022-12-10T01:02:30;119.60;;;41.03;;
20894;SDS011;10607;42.066;24.742;2022-12-10T01:04:55;118.57;;;39.33;;
20894;SDS011;10607;42.066;24.742;2022-12-10T01:07:20;137.97;;;41.67;;
20894;SDS011;10607;42.066;24.742;2022-12-10T01:09:46;207.60;;;43.53;;
20894;SDS011;10607;42.066;24.742;2022-12-10T01:12:11;139.87;;;42.67;;
20894;SDS011;10607;42.066;24.742;2022-12-10T01:14:36;370.00;;;50.03;;
20894;SDS011;10607;42.066;24.742;2022-12-10T01:17:02;171.93;;;45.57;;
20894;SDS011;10607;42.066;24.742;2022-12-10T01:19:28;135.07;;;45.70;;
20894;SDS011;10607;42.066;24.742;2022-12-10T01:21:54;173.77;;;47.07;;
20894;SDS011;10607;42.066;24.742;2022-12-10T01:24:20;160.20;;;48.00;;
20894;SDS011;10607;42.066;24.742;2022-12-10T01:26:45;165.93;;;47.30;;
20894;SDS011;10607;42.066;24.742;2022-12-10T01:29:11;158.80;;;44.90;;
20894;SDS011;10607;42.066;24.742;2022-12-10T01:31:37;187.57;;;46.93;;
20894;SDS011;10607;42.066;24.742;2022-12-10T01:34:03;151.13;;;44.40;;
20894;SDS011;10607;42.066;24.742;2022-12-10T01:38:54;146.90;;;42.93;;
20894;SDS011;10607;42.066;24.742;2022-12-10T01:41:23;160.40;;;45.20;;
20894;SDS011;10607;42.066;24.742;2022-12-10T01:46:14;168.20;;;47.80;;
20894;SDS011;10607;42.066;24.742;2022-12-10T01:48:39;161.23;;;48.13;;
20894;SDS011;10607;42.066;24.742;2022-12-10T01:51:05;231.97;;;49.90;;
20894;SDS011;10607;42.066;24.742;2022-12-10T01:53:30;186.60;;;46.77;;
20894;SDS011;10607;42.066;24.742;2022-12-10T01:55:56;166.83;;;48.53;;
20894;SDS011;10607;42.066;24.742;2022-12-10T01:58:21;170.33;;;48.13;;
20894;SDS011;10607;42.066;24.742;2022-12-10T02:03:32;191.70;;;47.87;;
20894;SDS011;10607;42.066;24.742;2022-12-10T02:06:04;183.30;;;47.20;;
20894;SDS011;10607;42.066;24.742;2022-12-10T02:08:33;169.20;;;44.93;;
20894;SDS011;10607;42.066;24.742;2022-12-10T02:11:16;148.90;;;44.17;;
20894;SDS011;10607;42.066;24.742;2022-12-10T02:13:43;145.83;;;43.87;;
20894;SDS011;10607;42.066;24.742;2022-12-10T02:16:14;135.67;;;43.13;;
20894;SDS011;10607;42.066;24.742;2022-12-10T02:21:07;160.20;;;43.00;;
20894;SDS011;10607;42.066;24.742;2022-12-10T02:23:35;134.97;;;42.17;;
20894;SDS011;10607;42.066;24.742;2022-12-10T02:31:14;135.30;;;46.50;;
20894;SDS011;10607;42.066;24.742;2022-12-10T02:33:42;142.23;;;46.87;;
20894;SDS011;10607;42.066;24.742;2022-12-10T02:36:08;131.23;;;43.13;;
20894;SDS011;10607;42.066;24.742;2022-12-10T02:38:35;132.00;;;43.80;;
20894;SDS011;10607;42.066;24.742;2022-12-10T02:41:05;120.87;;;40.67;;
20894;SDS011;10607;42.066;24.742;2022-12-10T02:43:30;128.67;;;42.80;;
20894;SDS011;10607;42.066;24.742;2022-12-10T02:45:57;120.90;;;42.03;;
20894;SDS011;10607;42.066;24.742;2022-12-10T02:48:23;136.13;;;41.43;;
20894;SDS011;10607;42.066;24.742;2022-12-10T02:50:49;123.33;;;40.23;;
20894;SDS011;10607;42.066;24.742;2022-12-10T02:53:15;122.83;;;39.50;;
20894;SDS011;10607;42.066;24.742;2022-12-10T02:58:28;109.70;;;38.20;;
20894;SDS011;10607;42.066;24.742;2022-12-10T03:01:16;120.13;;;38.67;;
20894;SDS011;10607;42.066;24.742;2022-12-10T03:03:47;113.17;;;37.57;;
20894;SDS011;10607;42.066;24.742;2022-12-10T03:06:27;106.60;;;37.80;;
20894;SDS011;10607;42.066;24.742;2022-12-10T03:08:59;117.77;;;36.60;;
20894;SDS011;10607;42.066;24.742;2022-12-10T03:11:26;116.83;;;35.80;;
20894;SDS011;10607;42.066;24.742;2022-12-10T03:16:24;102.93;;;34.60;;
20894;SDS011;10607;42.066;24.742;2022-12-10T03:18:50;108.90;;;35.07;;
20894;SDS011;10607;42.066;24.742;2022-12-10T03:21:17;99.37;;;33.97;;
20894;SDS011;10607;42.066;24.742;2022-12-10T03:23:43;99.53;;;34.80;;
20894;SDS011;10607;42.066;24.742;2022-12-10T03:26:10;117.93;;;34.40;;
20894;SDS011;10607;42.066;24.742;2022-12-10T03:28:37;101.73;;;33.23;;
20894;SDS011;10607;42.066;24.742;2022-12-10T03:31:03;103.43;;;32.67;;
20894;SDS011;10607;42.066;24.742;2022-12-10T03:33:29;97.57;;;31.60;;
20894;SDS011;10607;42.066;24.742;2022-12-10T03:35:54;95.57;;;33.23;;
20894;SDS011;10607;42.066;24.742;2022-12-10T03:38:20;93.23;;;33.33;;
20894;SDS011;10607;42.066;24.742;2022-12-10T03:40:45;95.07;;;31.87;;
20894;SDS011;10607;42.066;24.742;2022-12-10T03:43:13;82.50;;;29.07;;
20894;SDS011;10607;42.066;24.742;2022-12-10T03:45:39;86.87;;;30.23;;
20894;SDS011;10607;42.066;24.742;2022-12-10T03:48:04;98.73;;;32.03;;
20894;SDS011;10607;42.066;24.742;2022-12-10T03:50:29;87.93;;;30.30;;
20894;SDS011;10607;42.066;24.742;2022-12-10T03:52:55;87.17;;;29.50;;
20894;SDS011;10607;42.066;24.742;2022-12-10T03:55:20;86.33;;;30.27;;
20894;SDS011;10607;42.066;24.742;2022-12-10T03:57:45;106.03;;;30.60;;
20894;SDS011;10607;42.066;24.742;2022-12-10T04:00:11;86.57;;;29.30;;
20894;SDS011;10607;42.066;24.742;2022-12-10T04:02:36;78.67;;;29.10;;
20894;SDS011;10607;42.066;24.742;2022-12-10T04:05:02;93.23;;;29.50;;
20894;SDS011;10607;42.066;24.742;2022-12-10T04:07:27;90.70;;;29.60;;
20894;SDS011;10607;42.066;24.742;2022-12-10T04:09:52;88.67;;;29.30;;
20894;SDS011;10607;42.066;24.742;2022-12-10T04:12:18;77.03;;;29.17;;
20894;SDS011;10607;42.066;24.742;2022-12-10T04:14:43;81.47;;;28.63;;
20894;SDS011;10607;42.066;24.742;2022-12-10T04:17:34;76.57;;;27.50;;
20894;SDS011;10607;42.066;24.742;2022-12-10T04:20:00;78.77;;;27.00;;
20894;SDS011;10607;42.066;24.742;2022-12-10T04:22:25;86.27;;;27.43;;
20894;SDS011;10607;42.066;24.742;2022-12-10T04:25:10;83.07;;;26.87;;
20894;SDS011;10607;42.066;24.742;2022-12-10T04:27:54;73.93;;;25.60;;
20894;SDS011;10607;42.066;24.742;2022-12-10T04:30:20;79.23;;;28.53;;
20894;SDS011;10607;42.066;24.742;2022-12-10T04:32:45;89.00;;;26.63;;
20894;SDS011;10607;42.066;24.742;2022-12-10T04:35:10;77.57;;;28.23;;
20894;SDS011;10607;42.066;24.742;2022-12-10T04:37:35;77.17;;;27.97;;
20894;SDS011;10607;42.066;24.742;2022-12-10T04:40:01;80.80;;;28.87;;
20894;SDS011;10607;42.066;24.742;2022-12-10T04:42:27;71.10;;;26.37;;
20894;SDS011;10607;42.066;24.742;2022-12-10T04:44:52;81.67;;;26.70;;
20894;SDS011;10607;42.066;24.742;2022-12-10T04:47:18;77.83;;;26.90;;
20894;SDS011;10607;42.066;24.742;2022-12-10T04:49:43;87.23;;;28.03;;
20894;SDS011;10607;42.066;24.742;2022-12-10T04:52:10;78.33;;;26.70;;
20894;SDS011;10607;42.066;24.742;2022-12-10T04:54:36;77.60;;;26.93;;
20894;SDS011;10607;42.066;24.742;2022-12-10T04:57:01;87.60;;;28.30;;
20894;SDS011;10607;42.066;24.742;2022-12-10T04:59:26;85.53;;;29.33;;
20894;SDS011;10607;42.066;24.742;2022-12-10T05:01:51;94.50;;;28.63;;
20894;SDS011;10607;42.066;24.742;2022-12-10T05:04:17;89.30;;;30.07;;
20894;SDS011;10607;42.066;24.742;2022-12-10T05:06:43;86.67;;;30.20;;
20894;SDS011;10607;42.066;24.742;2022-12-10T05:09:10;92.43;;;31.43;;
20894;SDS011;10607;42.066;24.742;2022-12-10T05:11:35;89.13;;;31.43;;
20894;SDS011;10607;42.066;24.742;2022-12-10T05:14:01;83.67;;;29.10;;
20894;SDS011;10607;42.066;24.742;2022-12-10T05:16:27;92.73;;;29.60;;
20894;SDS011;10607;42.066;24.742;2022-12-10T05:18:53;102.83;;;31.93;;
20894;SDS011;10607;42.066;24.742;2022-12-10T05:21:19;88.40;;;30.60;;
20894;SDS011;10607;42.066;24.742;2022-12-10T05:23:45;88.53;;;31.23;;
20894;SDS011;10607;42.066;24.742;2022-12-10T05:28:40;77.47;;;31.20;;
20894;SDS011;10607;42.066;24.742;2022-12-10T05:31:05;91.03;;;30.30;;
20894;SDS011;10607;42.066;24.742;2022-12-10T05:33:35;87.10;;;30.40;;
20894;SDS011;10607;42.066;24.742;2022-12-10T05:36:01;80.90;;;30.47;;
20894;SDS011;10607;42.066;24.742;2022-12-10T05:38:28;84.33;;;29.27;;
20894;SDS011;10607;42.066;24.742;2022-12-10T05:40:54;88.93;;;32.10;;
20894;SDS011;10607;42.066;24.742;2022-12-10T05:43:19;80.40;;;29.67;;
20894;SDS011;10607;42.066;24.742;2022-12-10T05:45:45;73.13;;;28.60;;
20894;SDS011;10607;42.066;24.742;2022-12-10T05:48:11;71.40;;;27.90;;
20894;SDS011;10607;42.066;24.742;2022-12-10T05:50:37;72.97;;;27.43;;
20894;SDS011;10607;42.066;24.742;2022-12-10T05:53:02;70.47;;;26.07;;
20894;SDS011;10607;42.066;24.742;2022-12-10T05:55:28;71.53;;;26.23;;
20894;SDS011;10607;42.066;24.742;2022-12-10T05:57:54;68.37;;;25.17;;
20894;SDS011;10607;42.066;24.742;2022-12-10T06:00:19;70.23;;;26.47;;
20894;SDS011;10607;42.066;24.742;2022-12-10T06:02:46;70.47;;;25.80;;
20894;SDS011;10607;42.066;24.742;2022-12-10T06:05:11;70.60;;;25.90;;
20894;SDS011;10607;42.066;24.742;2022-12-10T06:07:36;73.40;;;30.60;;
20894;SDS011;10607;42.066;24.742;2022-12-10T06:10:02;63.80;;;26.57;;
20894;SDS011;10607;42.066;24.742;2022-12-10T06:12:27;70.20;;;25.30;;
20894;SDS011;10607;42.066;24.742;2022-12-10T06:14:52;74.47;;;31.63;;
20894;SDS011;10607;42.066;24.742;2022-12-10T06:17:18;63.83;;;25.93;;
20894;SDS011;10607;42.066;24.742;2022-12-10T06:19:43;67.20;;;29.27;;
20894;SDS011;10607;42.066;24.742;2022-12-10T06:22:08;72.63;;;32.60;;
20894;SDS011;10607;42.066;24.742;2022-12-10T06:24:33;73.00;;;31.23;;
20894;SDS011;10607;42.066;24.742;2022-12-10T06:26:59;74.43;;;31.47;;
20894;SDS011;10607;42.066;24.742;2022-12-10T06:29:24;86.20;;;37.37;;
20894;SDS011;10607;42.066;24.742;2022-12-10T06:31:49;95.60;;;41.17;;
20894;SDS011;10607;42.066;24.742;2022-12-10T06:34:14;98.10;;;48.33;;
20894;SDS011;10607;42.066;24.742;2022-12-10T06:36:40;80.50;;;36.73;;
20894;SDS011;10607;42.066;24.742;2022-12-10T06:39:05;81.60;;;37.63;;
20894;SDS011;10607;42.066;24.742;2022-12-10T06:41:30;67.17;;;32.77;;
20894;SDS011;10607;42.066;24.742;2022-12-10T06:43:55;73.60;;;33.70;;
20894;SDS011;10607;42.066;24.742;2022-12-10T06:46:24;71.33;;;35.17;;
20894;SDS011;10607;42.066;24.742;2022-12-10T06:48:49;72.03;;;34.23;;
20894;SDS011;10607;42.066;24.742;2022-12-10T06:51:15;68.33;;;34.80;;
20894;SDS011;10607;42.066;24.742;2022-12-10T06:53:42;68.63;;;33.83;;
20894;SDS011;10607;42.066;24.742;2022-12-10T06:56:07;92.33;;;47.00;;
20894;SDS011;10607;42.066;24.742;2022-12-10T06:58:36;72.17;;;35.57;;
20894;SDS011;10607;42.066;24.742;2022-12-10T07:01:02;44.67;;;22.37;;
20894;SDS011;10607;42.066;24.742;2022-12-10T07:03:27;63.23;;;28.07;;
20894;SDS011;10607;42.066;24.742;2022-12-10T07:05:52;52.90;;;26.33;;
20894;SDS011;10607;42.066;24.742;2022-12-10T07:08:21;54.63;;;22.77;;
20894;SDS011;10607;42.066;24.742;2022-12-10T07:10:48;49.63;;;22.77;;
20894;SDS011;10607;42.066;24.742;2022-12-10T07:13:13;50.80;;;26.93;;
20894;SDS011;10607;42.066;24.742;2022-12-10T07:15:38;54.40;;;22.87;;
20894;SDS011;10607;42.066;24.742;2022-12-10T07:18:04;46.97;;;20.37;;
20894;SDS011;10607;42.066;24.742;2022-12-10T07:20:29;42.23;;;20.93;;
20894;SDS011;10607;42.066;24.742;2022-12-10T07:22:54;50.33;;;23.60;;
20894;SDS011;10607;42.066;24.742;2022-12-10T07:25:20;47.13;;;21.23;;
20894;SDS011;10607;42.066;24.742;2022-12-10T07:27:45;42.97;;;20.73;;
20894;SDS011;10607;42.066;24.742;2022-12-10T07:30:10;46.37;;;21.30;;
20894;SDS011;10607;42.066;24.742;2022-12-10T07:32:36;45.93;;;21.57;;
20894;SDS011;10607;42.066;24.742;2022-12-10T07:35:01;45.83;;;19.23;;
20894;SDS011;10607;42.066;24.742;2022-12-10T07:37:26;41.50;;;20.97;;
20894;SDS011;10607;42.066;24.742;2022-12-10T07:39:52;42.13;;;19.50;;
20894;SDS011;10607;42.066;24.742;2022-12-10T07:42:17;35.90;;;18.53;;
20894;SDS011;10607;42.066;24.742;2022-12-10T07:44:42;38.03;;;19.70;;
20894;SDS011;10607;42.066;24.742;2022-12-10T07:47:07;40.80;;;19.10;;
20894;SDS011;10607;42.066;24.742;2022-12-10T07:49:33;38.23;;;18.47;;
20894;SDS011;10607;42.066;24.742;2022-12-10T07:51:58;44.10;;;20.30;;
20894;SDS011;10607;42.066;24.742;2022-12-10T07:54:24;43.93;;;19.80;;
20894;SDS011;10607;42.066;24.742;2022-12-10T07:56:49;35.90;;;18.53;;
20894;SDS011;10607;42.066;24.742;2022-12-10T07:59:14;43.70;;;18.40;;
20894;SDS011;10607;42.066;24.742;2022-12-10T08:01:39;36.17;;;17.90;;
20894;SDS011;10607;42.066;24.742;2022-12-10T08:04:05;36.80;;;18.50;;
20894;SDS011;10607;42.066;24.742;2022-12-10T08:06:30;37.93;;;17.33;;
20894;SDS011;10607;42.066;24.742;2022-12-10T08:08:57;38.60;;;18.93;;
20894;SDS011;10607;42.066;24.742;2022-12-10T08:11:22;38.40;;;19.57;;
20894;SDS011;10607;42.066;24.742;2022-12-10T08:13:48;44.67;;;18.77;;
20894;SDS011;10607;42.066;24.742;2022-12-10T08:16:15;38.00;;;19.43;;
20894;SDS011;10607;42.066;24.742;2022-12-10T08:18:40;36.50;;;17.50;;
20894;SDS011;10607;42.066;24.742;2022-12-10T08:21:16;37.97;;;18.33;;
20894;SDS011;10607;42.066;24.742;2022-12-10T08:23:42;39.40;;;18.87;;
20894;SDS011;10607;42.066;24.742;2022-12-10T08:26:08;36.00;;;19.00;;
20894;SDS011;10607;42.066;24.742;2022-12-10T08:28:34;38.13;;;18.90;;
20894;SDS011;10607;42.066;24.742;2022-12-10T08:31:00;41.57;;;19.43;;
20894;SDS011;10607;42.066;24.742;2022-12-10T08:33:25;40.47;;;20.10;;
20894;SDS011;10607;42.066;24.742;2022-12-10T08:35:51;38.70;;;19.80;;
20894;SDS011;10607;42.066;24.742;2022-12-10T08:38:16;38.40;;;18.93;;
20894;SDS011;10607;42.066;24.742;2022-12-10T08:40:41;37.47;;;19.10;;
20894;SDS011;10607;42.066;24.742;2022-12-10T08:43:07;38.43;;;19.97;;
20894;SDS011;10607;42.066;24.742;2022-12-10T08:45:32;42.67;;;19.30;;
20894;SDS011;10607;42.066;24.742;2022-12-10T08:47:57;40.83;;;18.63;;
20894;SDS011;10607;42.066;24.742;2022-12-10T08:50:23;39.97;;;19.63;;
20894;SDS011;10607;42.066;24.742;2022-12-10T08:52:48;39.00;;;19.93;;
20894;SDS011;10607;42.066;24.742;2022-12-10T08:55:13;38.90;;;17.70;;
20894;SDS011;10607;42.066;24.742;2022-12-10T08:57:38;40.70;;;20.17;;
20894;SDS011;10607;42.066;24.742;2022-12-10T09:00:04;36.90;;;19.70;;
20894;SDS011;10607;42.066;24.742;2022-12-10T09:02:29;35.87;;;19.00;;
20894;SDS011;10607;42.066;24.742;2022-12-10T09:04:55;38.53;;;18.70;;
20894;SDS011;10607;42.066;24.742;2022-12-10T09:07:20;38.23;;;19.03;;
20894;SDS011;10607;42.066;24.742;2022-12-10T09:09:45;41.33;;;18.40;;
20894;SDS011;10607;42.066;24.742;2022-12-10T09:12:11;36.60;;;19.87;;
20894;SDS011;10607;42.066;24.742;2022-12-10T09:14:36;34.00;;;19.77;;
20894;SDS011;10607;42.066;24.742;2022-12-10T09:17:03;34.83;;;19.70;;
20894;SDS011;10607;42.066;24.742;2022-12-10T09:19:29;35.23;;;18.87;;
20894;SDS011;10607;42.066;24.742;2022-12-10T09:21:54;32.63;;;18.47;;
20894;SDS011;10607;42.066;24.742;2022-12-10T09:24:19;30.30;;;17.20;;
20894;SDS011;10607;42.066;24.742;2022-12-10T09:26:44;31.35;;;17.60;;
20894;SDS011;10607;42.066;24.742;2022-12-10T09:29:10;32.65;;;18.80;;
20894;SDS011;10607;42.066;24.742;2022-12-10T09:31:35;31.02;;;17.17;;
20894;SDS011;10607;42.066;24.742;2022-12-10T09:34:00;29.15;;;16.73;;
20894;SDS011;10607;42.066;24.742;2022-12-10T09:36:25;30.00;;;16.80;;
20894;SDS011;10607;42.066;24.742;2022-12-10T09:38:51;31.20;;;17.00;;
20894;SDS011;10607;42.066;24.742;2022-12-10T09:48:57;46.95;;;21.33;;
20894;SDS011;10607;42.066;24.742;2022-12-10T09:51:25;54.97;;;26.48;;
20894;SDS011;10607;42.066;24.742;2022-12-10T09:53:52;47.08;;;22.15;;
20894;SDS011;10607;42.066;24.742;2022-12-10T09:56:25;57.45;;;33.97;;
20894;SDS011;10607;42.066;24.742;2022-12-10T09:58:51;40.55;;;20.92;;
20894;SDS011;10607;42.066;24.742;2022-12-10T10:01:17;34.40;;;17.90;;
20894;SDS011;10607;42.066;24.742;2022-12-10T10:03:44;40.83;;;23.73;;
20894;SDS011;10607;42.066;24.742;2022-12-10T10:06:10;37.08;;;23.40;;
20894;SDS011;10607;42.066;24.742;2022-12-10T10:08:44;39.97;;;21.55;;
20894;SDS011;10607;42.066;24.742;2022-12-10T10:11:43;36.67;;;19.42;;
20894;SDS011;10607;42.066;24.742;2022-12-10T10:14:24;40.45;;;18.52;;
20894;SDS011;10607;42.066;24.742;2022-12-10T10:16:51;31.50;;;18.08;;
20894;SDS011;10607;42.066;24.742;2022-12-10T10:19:19;36.30;;;19.40;;
20894;SDS011;10607;42.066;24.742;2022-12-10T10:21:47;27.13;;;17.13;;
20894;SDS011;10607;42.066;24.742;2022-12-10T10:24:13;33.45;;;18.70;;
20894;SDS011;10607;42.066;24.742;2022-12-10T10:26:40;28.17;;;14.90;;
20894;SDS011;10607;42.066;24.742;2022-12-10T10:29:07;26.17;;;14.02;;
20894;SDS011;10607;42.066;24.742;2022-12-10T10:31:33;26.17;;;13.98;;
20894;SDS011;10607;42.066;24.742;2022-12-10T10:34:00;25.00;;;14.60;;
20894;SDS011;10607;42.066;24.742;2022-12-10T10:36:27;26.27;;;15.90;;
20894;SDS011;10607;42.066;24.742;2022-12-10T10:38:52;27.13;;;14.82;;
20894;SDS011;10607;42.066;24.742;2022-12-10T10:41:18;22.80;;;14.50;;
20894;SDS011;10607;42.066;24.742;2022-12-10T10:43:43;27.45;;;15.20;;
20894;SDS011;10607;42.066;24.742;2022-12-10T10:46:22;37.13;;;17.23;;
20894;SDS011;10607;42.066;24.742;2022-12-10T10:48:47;30.92;;;17.58;;
20894;SDS011;10607;42.066;24.742;2022-12-10T10:53:44;43.50;;;17.30;;
20894;SDS011;10607;42.066;24.742;2022-12-10T10:58:37;33.28;;;16.92;;
20894;SDS011;10607;42.066;24.742;2022-12-10T11:01:10;29.67;;;16.00;;
20894;SDS011;10607;42.066;24.742;2022-12-10T11:03:35;23.98;;;14.68;;
20894;SDS011;10607;42.066;24.742;2022-12-10T11:06:04;29.67;;;15.30;;
20894;SDS011;10607;42.066;24.742;2022-12-10T11:08:30;34.03;;;15.48;;
20894;SDS011;10607;42.066;24.742;2022-12-10T11:11:03;33.40;;;16.67;;
20894;SDS011;10607;42.066;24.742;2022-12-10T11:13:31;31.17;;;17.67;;
20894;SDS011;10607;42.066;24.742;2022-12-10T11:16:01;30.73;;;17.73;;
20894;SDS011;10607;42.066;24.742;2022-12-10T11:23:53;33.03;;;15.55;;
20894;SDS011;10607;42.066;24.742;2022-12-10T11:26:29;29.98;;;16.00;;
20894;SDS011;10607;42.066;24.742;2022-12-10T11:34:02;35.20;;;17.98;;
20894;SDS011;10607;42.066;24.742;2022-12-10T11:41:38;36.10;;;18.85;;
20894;SDS011;10607;42.066;24.742;2022-12-10T11:51:52;48.42;;;22.38;;
20894;SDS011;10607;42.066;24.742;2022-12-10T11:59:42;45.92;;;21.02;;
20894;SDS011;10607;42.066;24.742;2022-12-10T12:12:19;42.10;;;21.90;;
20894;SDS011;10607;42.066;24.742;2022-12-10T12:14:50;51.90;;;25.63;;
20894;SDS011;10607;42.066;24.742;2022-12-10T12:19:53;45.65;;;23.67;;
20894;SDS011;10607;42.066;24.742;2022-12-10T12:24:47;42.38;;;21.58;;
20894;SDS011;10607;42.066;24.742;2022-12-10T12:30:02;41.08;;;22.00;;
20894;SDS011;10607;42.066;24.742;2022-12-10T12:32:36;38.60;;;22.15;;
20894;SDS011;10607;42.066;24.742;2022-12-10T12:35:11;42.28;;;22.33;;
20894;SDS011;10607;42.066;24.742;2022-12-10T12:37:40;38.55;;;21.80;;
20894;SDS011;10607;42.066;24.742;2022-12-10T12:40:12;46.50;;;25.38;;
20894;SDS011;10607;42.066;24.742;2022-12-10T12:42:41;39.92;;;23.35;;
20894;SDS011;10607;42.066;24.742;2022-12-10T12:45:19;52.45;;;27.23;;
20894;SDS011;10607;42.066;24.742;2022-12-10T12:47:57;61.38;;;29.77;;
20894;SDS011;10607;42.066;24.742;2022-12-10T12:50:29;60.25;;;30.98;;
20894;SDS011;10607;42.066;24.742;2022-12-10T12:52:59;54.63;;;27.42;;
20894;SDS011;10607;42.066;24.742;2022-12-10T13:00:37;51.92;;;26.58;;
20894;SDS011;10607;42.066;24.742;2022-12-10T13:05:46;52.88;;;28.08;;
20894;SDS011;10607;42.066;24.742;2022-12-10T13:13:32;59.85;;;29.60;;
20894;SDS011;10607;42.066;24.742;2022-12-10T13:18:42;53.00;;;27.45;;
20894;SDS011;10607;42.066;24.742;2022-12-10T13:23:50;52.13;;;27.40;;
20894;SDS011;10607;42.066;24.742;2022-12-10T13:26:29;52.45;;;27.23;;
20894;SDS011;10607;42.066;24.742;2022-12-10T13:28:55;54.08;;;28.80;;
20894;SDS011;10607;42.066;24.742;2022-12-10T13:36:27;55.88;;;26.70;;
20894;SDS011;10607;42.066;24.742;2022-12-10T13:44:46;50.03;;;26.30;;
20894;SDS011;10607;42.066;24.742;2022-12-10T13:52:30;52.92;;;28.98;;
20894;SDS011;10607;42.066;24.742;2022-12-10T14:00:20;57.00;;;28.52;;
20894;SDS011;10607;42.066;24.742;2022-12-10T14:08:00;64.55;;;35.53;;
20894;SDS011;10607;42.066;24.742;2022-12-10T14:10:29;70.32;;;38.97;;
20894;SDS011;10607;42.066;24.742;2022-12-10T14:12:54;74.88;;;39.95;;
20894;SDS011;10607;42.066;24.742;2022-12-10T14:15:21;74.90;;;40.65;;
20894;SDS011;10607;42.066;24.742;2022-12-10T14:17:48;90.90;;;46.75;;
20894;SDS011;10607;42.066;24.742;2022-12-10T14:20:15;78.25;;;41.88;;
20894;SDS011;10607;42.066;24.742;2022-12-10T14:23:25;69.95;;;35.30;;
20894;SDS011;10607;42.066;24.742;2022-12-10T14:25:50;64.53;;;35.00;;
20894;SDS011;10607;42.066;24.742;2022-12-10T14:28:17;64.65;;;35.80;;
20894;SDS011;10607;42.066;24.742;2022-12-10T14:30:43;58.75;;;33.08;;
20894;SDS011;10607;42.066;24.742;2022-12-10T14:33:09;64.18;;;34.90;;
20894;SDS011;10607;42.066;24.742;2022-12-10T14:35:37;70.13;;;35.55;;
20894;SDS011;10607;42.066;24.742;2022-12-10T14:38:02;68.32;;;37.20;;
20894;SDS011;10607;42.066;24.742;2022-12-10T14:43:04;64.25;;;32.83;;
20894;SDS011;10607;42.066;24.742;2022-12-10T14:45:32;64.97;;;37.63;;
20894;SDS011;10607;42.066;24.742;2022-12-10T14:48:01;72.47;;;36.58;;
20894;SDS011;10607;42.066;24.742;2022-12-10T14:50:32;69.70;;;37.27;;
20894;SDS011;10607;42.066;24.742;2022-12-10T14:52:57;78.67;;;42.07;;
20894;SDS011;10607;42.066;24.742;2022-12-10T14:55:22;77.65;;;38.10;;
20894;SDS011;10607;42.066;24.742;2022-12-10T14:57:53;80.55;;;39.35;;
20894;SDS011;10607;42.066;24.742;2022-12-10T15:00:20;72.32;;;38.72;;
20894;SDS011;10607;42.066;24.742;2022-12-10T15:02:47;77.10;;;41.45;;
20894;SDS011;10607;42.066;24.742;2022-12-10T15:05:17;84.20;;;46.83;;
20894;SDS011;10607;42.066;24.742;2022-12-10T15:07:47;118.43;;;59.73;;
20894;SDS011;10607;42.066;24.742;2022-12-10T15:10:16;102.70;;;54.13;;
20894;SDS011;10607;42.066;24.742;2022-12-10T15:12:42;96.10;;;47.43;;
20894;SDS011;10607;42.066;24.742;2022-12-10T15:15:51;80.57;;;44.00;;
20894;SDS011;10607;42.066;24.742;2022-12-10T15:17:58;80.77;;;40.67;;
20894;SDS011;10607;42.066;24.742;2022-12-10T15:20:25;84.90;;;41.80;;
20894;SDS011;10607;42.066;24.742;2022-12-10T15:22:51;84.18;;;41.40;;
20894;SDS011;10607;42.066;24.742;2022-12-10T15:25:25;80.13;;;41.60;;
20894;SDS011;10607;42.066;24.742;2022-12-10T15:27:52;75.37;;;39.70;;
20894;SDS011;10607;42.066;24.742;2022-12-10T15:30:21;91.77;;;44.53;;
20894;SDS011;10607;42.066;24.742;2022-12-10T15:32:47;79.77;;;42.43;;
20894;SDS011;10607;42.066;24.742;2022-12-10T15:35:12;78.63;;;43.40;;
20894;SDS011;10607;42.066;24.742;2022-12-10T15:37:40;77.87;;;42.27;;
20894;SDS011;10607;42.066;24.742;2022-12-10T15:40:27;88.97;;;45.60;;
20894;SDS011;10607;42.066;24.742;2022-12-10T15:42:51;81.07;;;42.90;;
20894;SDS011;10607;42.066;24.742;2022-12-10T15:45:22;81.30;;;42.57;;
20894;SDS011;10607;42.066;24.742;2022-12-10T15:47:48;81.27;;;45.07;;
20894;SDS011;10607;42.066;24.742;2022-12-10T15:50:14;77.70;;;44.63;;
20894;SDS011;10607;42.066;24.742;2022-12-10T15:52:39;91.33;;;51.30;;
20894;SDS011;10607;42.066;24.742;2022-12-10T15:55:05;90.87;;;51.17;;
20894;SDS011;10607;42.066;24.742;2022-12-10T15:57:31;96.53;;;46.83;;
20894;SDS011;10607;42.066;24.742;2022-12-10T15:59:58;106.67;;;50.90;;
20894;SDS011;10607;42.066;24.742;2022-12-10T16:04:52;121.23;;;61.80;;
20894;SDS011;10607;42.066;24.742;2022-12-10T16:07:17;124.27;;;63.97;;
20894;SDS011;10607;42.066;24.742;2022-12-10T16:09:43;101.13;;;56.43;;
20894;SDS011;10607;42.066;24.742;2022-12-10T16:12:15;124.80;;;67.57;;
20894;SDS011;10607;42.066;24.742;2022-12-10T16:14:42;110.47;;;60.17;;
20894;SDS011;10607;42.066;24.742;2022-12-10T16:17:10;108.97;;;56.73;;
20894;SDS011;10607;42.066;24.742;2022-12-10T16:19:36;107.33;;;58.40;;